Flight Track Log - Related Links

Times and Time Zones

All times are in EDT time to prevent confusion due to time zone crossing. See the UPS1121 flight status page for this flight to view local times or setup timezone preferences in your user account.

Time Position Orientation Groundspeed Altitude Reporting Facility
EDT Latitude Longitude Course Direction KTS MPH feet Rate Location/Type
Fri 10:55:19 PM 41.9458 -72.7025 320° Northwest 153 176 1,000  Level Boston Center
Fri 10:56:40 PM 41.9936 -72.7558 320° Northwest 169 194 3,400 2,000 Climbing Boston Center
Fri 10:57:40 PM 42.0517 -72.7953 333° Northwest 201 231 5,700 2,750 Climbing Boston Center
Fri 10:58:40 PM 42.1206 -72.8403 334° Northwest 238 274 8,900 2,149 Climbing Boston Center
Fri 11:04:22 PM 42.2440 -73.4880 334° Northwest 407 468 20,100 1,963 Climbing FlightAware ADS-B
Fri 11:05:02 PM 42.2350 -73.5920 263° West 413 475 21,400 1,800 Climbing FlightAware ADS-B
Fri 11:05:42 PM 42.2260 -73.6910 263° West 418 481 22,500 1,600 Climbing FlightAware ADS-B
Fri 11:06:17 PM 42.2170 -73.7820 262° West 422 486 23,400 750 Climbing FlightAware ADS-B
Fri 11:07:02 PM 42.2060 -73.8880 262° West 423 487 23,500 63 Climbing FlightAware ADS-B
Fri 11:07:52 PM 42.1950 -73.9990 262° West 423 487 23,500 1,667 Level FlightAware ADS-B
Fri 11:08:32 PM 42.1840 -74.1380 264° West 437 503 26,000 1,875 Climbing FlightAware ADS-B
Fri 11:09:12 PM 42.1740 -74.2290 262° West 437 503 26,000 1,414 Level FlightAware ADS-B
Fri 11:10:52 PM 42.1450 -74.5340 263° West 451 519 29,300 2,012 Climbing FlightAware ADS-B
Fri 11:11:53 PM 42.1268 -74.7101 262° West 447 514 31,400 1,780 Climbing FlightAware ADS-B
Fri 11:12:23 PM 42.1182 -74.7940 262° West 447 514 32,000 590 Climbing FlightAware ADS-B
Fri 11:12:54 PM 42.1095 -74.8779 262° West 447 514 32,000  Level FlightAware ADS-B
Fri 11:13:25 PM 42.1007 -74.9630 262° West 449 517 32,000  Level FlightAware ADS-B
Fri 11:14:05 PM 42.0888 -75.0758 262° West 451 519 32,000  Level FlightAware ADS-B
Fri 11:14:37 PM 42.0800 -75.1580 262° West 451 519 32,000  Level FlightAware ADS-B
Fri 11:14:45 PM 42.0770 -75.1870 262° West 452 520 32,000  Level FlightAware ADS-B
Fri 11:15:17 PM 42.0670 -75.2710 261° West 450 518 32,000  Level FlightAware ADS-B
Fri 11:15:56 PM 42.0379 -75.3770 250° West 452 520 32,000  Level FlightAware ADS-B
Fri 11:16:45 PM 41.9886 -75.4969 241° Southwest 452 520 32,000  Level FlightAware ADS-B
Fri 11:17:27 PM 41.9480 -75.5940 241° Southwest 449 517 32,000  Level FlightAware ADS-B
Fri 11:18:02 PM 41.9160 -75.6720 241° Southwest 449 517 32,000  Level FlightAware ADS-B
Fri 11:18:42 PM 41.8760 -75.7680 241° Southwest 446 513 32,000  Level FlightAware ADS-B
Fri 11:19:39 PM 41.8126 -75.9200 241° Southwest 445 512 32,000  Level FlightAware ADS-B
Fri 11:20:10 PM 41.7813 -75.9951 241° Southwest 445 512 32,000  Level FlightAware ADS-B
Fri 11:20:41 PM 41.7506 -76.0686 241° Southwest 444 511 32,000  Level FlightAware ADS-B
Fri 11:21:12 PM 41.7197 -76.1420 241° Southwest 444 511 32,000  Level FlightAware ADS-B
Fri 11:21:42 PM 41.6886 -76.2159 241° Southwest 445 512 32,000  Level FlightAware ADS-B
Fri 11:22:15 PM 41.6556 -76.2940 241° Southwest 445 512 32,000  Level FlightAware ADS-B
Fri 11:22:45 PM 41.6253 -76.3657 241° Southwest 443 510 32,000  Level FlightAware ADS-B
Fri 11:23:16 PM 41.5944 -76.4387 241° Southwest 444 511 32,000  Level FlightAware ADS-B
Fri 11:23:46 PM 41.5640 -76.5101 240° Southwest 444 511 32,000  Level FlightAware ADS-B
Fri 11:24:17 PM 41.5314 -76.5866 240° Southwest 443 510 32,000  Level FlightAware ADS-B
Fri 11:24:55 PM 41.4930 -76.6775 241° Southwest 443 510 32,000  Level FlightAware ADS-B
Fri 11:25:27 PM 41.4667 -76.7519 245° Southwest 436 502 32,000  Level FlightAware ADS-B
Fri 11:25:48 PM 41.4511 -76.8054 249° West 434 499 32,000  Level FlightAware ADS-B
Fri 11:26:18 PM 41.4310 -76.8808 250° West 433 498 32,000  Level FlightAware ADS-B
Fri 11:27:03 PM 41.3999 -76.9953 250° West 433 498 32,000  Level FlightAware ADS-B
Fri 11:27:42 PM 41.3740 -77.0922 250° West 433 498 32,000  Level FlightAware ADS-B
Fri 11:28:17 PM 41.3503 -77.1812 250° West 433 498 32,000  Level FlightAware ADS-B
Fri 11:28:40 PM 41.3375 -77.2286 250° West 439 505 32,000  Level New York Center
Fri 11:30:33 PM 41.2603 -77.5142 250° West 431 496 32,000  Level Cleveland Center
Fri 11:31:33 PM 41.2183 -77.6653 250° West 431 496 32,000  Level Cleveland Center
Fri 11:32:33 PM 41.1761 -77.8161 250° West 431 496 32,000  Level Cleveland Center
Fri 11:33:33 PM 41.1358 -77.9667 250° West 431 496 32,000  Level Cleveland Center
Fri 11:34:33 PM 41.0953 -78.1144 250° West 431 496 32,000  Level Cleveland Center
Fri 11:35:33 PM 41.0567 -78.2589 251° West 431 496 32,000  Level Cleveland Center
Fri 11:36:33 PM 41.0136 -78.4064 249° West 431 496 32,000  Level Cleveland Center
Fri 11:37:33 PM 40.9747 -78.5533 251° West 431 496 32,000  Level Cleveland Center
Fri 11:38:33 PM 40.9314 -78.6978 248° West 431 496 32,000  Level Cleveland Center
Fri 11:43:47 PM 40.7150 -79.4450 248° West 413 475 32,000  Level FlightAware ADS-B
Fri 11:44:32 PM 40.6820 -79.5570 249° West 410 472 32,000  Level FlightAware ADS-B
Fri 11:46:22 PM 40.6070 -79.8100 249° West 404 465 32,000  Level FlightAware ADS-B
Fri 11:47:02 PM 40.5810 -79.9000 249° West 402 463 32,000  Level FlightAware ADS-B
Fri 11:47:42 PM 40.5530 -79.9930 248° West 400 460 32,000  Level FlightAware ADS-B
Fri 11:48:27 PM 40.5230 -80.0940 249° West 399 459 32,000  Level FlightAware ADS-B
Fri 11:49:07 PM 40.4950 -80.1860 248° West 397 457 32,000  Level FlightAware ADS-B
Fri 11:49:47 PM 40.4690 -80.2720 248° West 395 455 32,000  Level FlightAware ADS-B
Fri 11:50:32 PM 40.4380 -80.3750 248° West 395 455 32,000  Level FlightAware ADS-B
Fri 11:51:12 PM 40.4110 -80.4630 248° West 394 453 32,000  Level FlightAware ADS-B
Fri 11:51:57 PM 40.3810 -80.5640 249° West 393 452 32,000  Level FlightAware ADS-B
Fri 11:52:37 PM 40.3530 -80.6550 248° West 393 452 32,000  Level FlightAware ADS-B
Fri 11:53:22 PM 40.3230 -80.7530 248° West 394 453 32,000  Level FlightAware ADS-B
Fri 11:54:02 PM 40.2950 -80.8430 248° West 394 453 32,000  Level FlightAware ADS-B
Fri 11:54:42 PM 40.2680 -80.9310 248° West 394 453 32,000  Level FlightAware ADS-B
Fri 11:55:27 PM 40.2370 -81.0320 248° West 394 453 32,000  Level FlightAware ADS-B
Fri 11:56:07 PM 40.2100 -81.1170 247° West 394 453 32,000  Level FlightAware ADS-B
Fri 11:56:52 PM 40.1790 -81.2170 248° West 395 455 32,000  Level FlightAware ADS-B
Fri 11:57:32 PM 40.1510 -81.3070 248° West 395 455 32,000  Level FlightAware ADS-B
Fri 11:58:12 PM 40.1230 -81.3950 247° West 395 455 32,000  Level FlightAware ADS-B
Fri 11:58:57 PM 40.0920 -81.4930 248° West 394 453 32,000  Level FlightAware ADS-B
Fri 11:59:37 PM 40.0640 -81.5810 247° West 394 453 32,000  Level FlightAware ADS-B
Sat 12:00:22 AM 40.0320 -81.6820 248° West 394 453 32,000  Level FlightAware ADS-B
Sat 12:01:02 AM 40.0040 -81.7700 247° West 395 455 32,000  Level FlightAware ADS-B
Sat 12:01:42 AM 39.9760 -81.8580 247° West 395 455 32,000  Level FlightAware ADS-B
Sat 12:02:27 AM 39.9440 -81.9570 247° West 396 456 32,000  Level FlightAware ADS-B
Sat 12:03:07 AM 39.9150 -82.0490 248° West 397 457 32,000  Level FlightAware ADS-B
Sat 12:03:52 AM 39.8830 -82.1450 247° West 397 457 32,000  Level FlightAware ADS-B
Sat 12:04:32 AM 39.8550 -82.2330 248° West 397 457 32,000  Level FlightAware ADS-B
Sat 12:05:17 AM 39.8220 -82.3360 247° West 398 458 32,000  Level FlightAware ADS-B
Sat 12:05:52 AM 39.7970 -82.4100 246° West 398 458 32,000  Level FlightAware ADS-B
Sat 12:06:32 AM 39.7680 -82.4990 247° West 398 458 32,000  Level FlightAware ADS-B
Sat 12:07:12 AM 39.7390 -82.5870 247° West 400 460 32,000  Level FlightAware ADS-B
Sat 12:07:57 AM 39.7070 -82.6850 247° West 401 461 32,000  Level FlightAware ADS-B
Sat 12:08:37 AM 39.6760 -82.7770 246° West 401 461 32,000  Level FlightAware ADS-B
Sat 12:09:12 AM 39.6510 -82.8530 247° West 402 463 32,000  Level FlightAware ADS-B
Sat 12:09:57 AM 39.6210 -82.9420 246° West 402 463 32,000  Level FlightAware ADS-B
Sat 12:10:57 AM 39.5720 -83.0890 247° West 403 464 32,000  Level FlightAware ADS-B
Sat 12:11:37 AM 39.5430 -83.1770 247° West 402 463 32,000  Level FlightAware ADS-B
Sat 12:12:17 AM 39.5150 -83.2580 246° West 401 461 32,000 -353 Level FlightAware ADS-B
Sat 12:13:02 AM 39.4800 -83.3630 247° West 401 461 31,500 -800 Descending FlightAware ADS-B
Sat 12:13:47 AM 39.4460 -83.4650 247° West 407 468 30,800 -918 Descending FlightAware ADS-B
Sat 12:14:27 AM 39.4150 -83.5560 246° West 412 474 30,200 -565 Descending FlightAware ADS-B
Sat 12:15:12 AM 39.3800 -83.6560 246° West 414 476 30,000 -141 Descending FlightAware ADS-B
Sat 12:15:52 AM 39.3490 -83.7470 246° West 416 479 30,000  Level FlightAware ADS-B
Sat 12:16:32 AM 39.3180 -83.8380 246° West 418 481 30,000  Level FlightAware ADS-B
Sat 12:17:17 AM 39.2840 -83.9380 246° West 418 481 30,000  Level FlightAware ADS-B
Sat 12:17:57 AM 39.2510 -84.0330 246° West 418 481 30,000  Level FlightAware ADS-B
Sat 12:18:42 AM 39.2180 -84.1260 245° Southwest 418 481 30,000  Level FlightAware ADS-B
Sat 12:19:22 AM 39.1900 -84.2030 245° Southwest 418 481 30,000  Level FlightAware ADS-B
Sat 12:20:02 AM 39.1620 -84.2800 245° Southwest 418 481 30,000  Level FlightAware ADS-B
Sat 12:20:42 AM 39.1350 -84.3570 246° West 418 481 30,000  Level FlightAware ADS-B
Sat 12:21:32 AM 39.1000 -84.4530 245° Southwest 418 481 30,000  Level FlightAware ADS-B
Sat 12:22:12 AM 39.0720 -84.5300 245° Southwest 418 481 30,000 -3,450 Level FlightAware ADS-B
Sat 12:22:52 AM 39.0120 -84.7000 246° West 432 497 25,400 -5,840 Descending FlightAware ADS-B
Sat 12:23:27 AM 38.9600 -84.7590 221° Southwest 438 504 22,700 -2,025 Descending FlightAware ADS-B
Sat 12:24:12 AM 38.8950 -84.8210 217° Southwest 438 504 22,700  Level FlightAware ADS-B
Sat 12:24:52 AM 38.8400 -84.8740 217° Southwest 438 504 22,700  Level FlightAware ADS-B
Sat 12:25:42 AM 38.7720 -84.9410 218° Southwest 438 504 22,700  Level FlightAware ADS-B
Sat 12:26:22 AM 38.7170 -84.9940 217° Southwest 438 504 22,700  Level FlightAware ADS-B
Sat 12:27:02 AM 38.6620 -85.0470 217° Southwest 438 504 22,700 -8,400 Level FlightAware ADS-B
Sat 12:27:42 AM 38.5740 -85.1300 216° Southwest 401 461 11,500 -7,140 Descending FlightAware ADS-B
Sat 12:28:42 AM 38.4930 -85.2070 217° Southwest 370 426 10,800 -960 Descending FlightAware ADS-B
Sat 12:28:57 AM 38.4800 -85.2350 239° Southwest 336 387 10,300 -1,200 Descending FlightAware ADS-B
Sat 12:29:37 AM 38.4580 -85.3090 249° West 308 354 9,700 -686 Descending FlightAware ADS-B
Sat 12:30:07 AM 38.4450 -85.3570 251° West 284 327 9,500 -873 Descending FlightAware ADS-B
Sat 12:30:32 AM 38.4340 -85.3990 252° West 279 321 8,900 -1,320 Descending FlightAware ADS-B
Sat 12:30:57 AM 38.4220 -85.4300 244° Southwest 275 316 8,400 -1,320 Descending FlightAware ADS-B
Sat 12:31:22 AM 38.4050 -85.4690 241° Southwest 268 308 7,800 -1,309 Descending FlightAware ADS-B
Sat 12:31:52 AM 38.3880 -85.5090 242° Southwest 262 302 7,200 -1,100 Descending FlightAware ADS-B
Sat 12:32:22 AM 38.3690 -85.5480 238° Southwest 256 295 6,700 -750 Descending FlightAware ADS-B
Sat 12:32:32 AM 38.3630 -85.5610 240° Southwest 257 296 6,700  Level FlightAware ADS-B
Sat 12:33:02 AM 38.3430 -85.6010 237° Southwest 258 297 6,700  Level FlightAware ADS-B
Sat 12:33:32 AM 38.3250 -85.6400 240° Southwest 259 298 6,700  Level FlightAware ADS-B
Sat 12:33:57 AM 38.3100 -85.6720 239° Southwest 260 299 6,700  Level FlightAware ADS-B
Sat 12:34:42 AM 38.2810 -85.7350 240° Southwest 259 298 6,700 -343 Level FlightAware ADS-B
Sat 12:35:07 AM 38.2680 -85.7630 239° Southwest 253 291 6,300 -1,091 Descending FlightAware ADS-B
Sat 12:35:37 AM 38.2500 -85.8010 239° Southwest 250 288 5,700 -720 Descending FlightAware ADS-B
Sat 12:35:57 AM 38.2380 -85.8280 241° Southwest 250 288 5,700  Level FlightAware ADS-B
Sat 12:36:17 AM 38.2210 -85.8500 225° Southwest 248 285 5,700 -343 Level FlightAware ADS-B
Sat 12:36:32 AM 38.2040 -85.8550 193° South 245 282 5,500 -1,200 Descending FlightAware ADS-B
Sat 12:37:02 AM 38.1710 -85.8420 163° South 251 289 4,800 -982 Descending FlightAware ADS-B
Sat 12:37:27 AM 38.1450 -85.8300 160° South 249 287 4,600 -109 Descending FlightAware ADS-B
Sat 12:37:57 AM 38.1140 -85.8160 160° South 220 253 4,700 109 Climbing FlightAware ADS-B
Sat 12:38:22 AM 38.0910 -85.8060 161° South 211 243 4,700  Level FlightAware ADS-B
Sat 12:38:37 AM 38.0770 -85.7990 159° South 212 244 4,700  Level FlightAware ADS-B
Sat 12:39:02 AM 38.0530 -85.7890 162° South 213 245 4,700  Level FlightAware ADS-B
Sat 12:39:32 AM 38.0250 -85.7770 161° South 212 244 4,700  Level FlightAware ADS-B
Sat 12:40:02 AM 37.9980 -85.7680 165° South 210 242 4,700 -327 Level FlightAware ADS-B
Sat 12:40:27 AM 37.9740 -85.7600 165° South 206 237 4,400 -982 Descending FlightAware ADS-B
Sat 12:40:57 AM 37.9490 -85.7460 156° South 212 244 3,800 -933 Descending FlightAware ADS-B
Sat 12:41:12 AM 37.9420 -85.7290 118° Southeast 219 252 3,700 -150 Descending FlightAware ADS-B
Sat 12:41:37 AM 37.9510 -85.6980 70° East 226 260 3,700  Level FlightAware ADS-B
Sat 12:41:52 AM 37.9640 -85.6890 29° Northeast 226 260 3,700  Level FlightAware ADS-B
Sat 12:42:07 AM 37.9800 -85.6840 14° North 211 243 3,700 -133 Level FlightAware ADS-B
Sat 12:42:37 AM 38.0060 -85.6890 351° North 191 220 3,600 -655 Descending FlightAware ADS-B
Sat 12:43:02 AM 38.0280 -85.6960 346° North 190 219 3,100 -1,200 Descending FlightAware ADS-B
Sat 12:43:32 AM 38.0530 -85.7050 344° North 186 214 2,500 -1,309 Descending FlightAware ADS-B
Sat 12:43:57 AM 38.0740 -85.7120 345° North 171 197 1,900 -1,200 Descending FlightAware ADS-B
Sat 12:44:27 AM 38.0960 -85.7190 346° North 150 173 1,400 -873 Descending FlightAware ADS-B
Sat 12:44:52 AM 38.1120 -85.7240 346° North 138 159 1,100 -764 Descending FlightAware ADS-B
Sat 12:45:22 AM 38.1300 -85.7300 345° North 136 157 700 -800 Descending FlightAware ADS-B
Sat 12:45:37 AM 38.1390 -85.7330 345° North 134 154 500 -667 Descending FlightAware ADS-B
Sat 12:46:07 AM 38.1560 -85.7390 344° North 129 148 200 -600 Descending FlightAware ADS-B

Login

Don't have an account? Register now (free) for customized features, flight alerts, and more!